sensor_id;sensor_type;location;lat;lon;timestamp;pressure;altitude;pressure_sealevel;temperature;humidity
46211;BME280;52144;48.040;-1.594;2023-05-29T00:02:02;101266.06;;;20.27;78.79
46211;BME280;52144;48.040;-1.594;2023-05-29T00:04:30;101270.72;;;20.25;78.83
46211;BME280;52144;48.040;-1.594;2023-05-29T00:06:58;101270.03;;;20.34;79.80
46211;BME280;52144;48.040;-1.594;2023-05-29T00:09:25;101269.84;;;20.60;77.68
46211;BME280;52144;48.040;-1.594;2023-05-29T00:11:55;101261.19;;;20.55;75.90
46211;BME280;52144;48.040;-1.594;2023-05-29T00:14:23;101264.63;;;20.57;76.43
46211;BME280;52144;48.040;-1.594;2023-05-29T00:16:51;101264.28;;;20.50;77.99
46211;BME280;52144;48.040;-1.594;2023-05-29T00:19:19;101265.41;;;20.59;77.13
46211;BME280;52144;48.040;-1.594;2023-05-29T00:21:47;101262.94;;;20.56;77.85
46211;BME280;52144;48.040;-1.594;2023-05-29T00:24:15;101261.66;;;20.49;77.77
46211;BME280;52144;48.040;-1.594;2023-05-29T00:26:43;101264.38;;;20.37;78.08
46211;BME280;52144;48.040;-1.594;2023-05-29T00:29:13;101269.06;;;20.35;77.12
46211;BME280;52144;48.040;-1.594;2023-05-29T00:31:41;101264.19;;;20.05;79.28
46211;BME280;52144;48.040;-1.594;2023-05-29T00:34:09;101261.50;;;20.16;77.81
46211;BME280;52144;48.040;-1.594;2023-05-29T00:36:37;101263.78;;;19.98;78.89
46211;BME280;52144;48.040;-1.594;2023-05-29T00:39:05;101256.28;;;19.91;78.71
46211;BME280;52144;48.040;-1.594;2023-05-29T00:41:33;101263.72;;;20.11;79.12
46211;BME280;52144;48.040;-1.594;2023-05-29T00:44:00;101264.03;;;19.95;78.33
46211;BME280;52144;48.040;-1.594;2023-05-29T00:46:31;101260.88;;;20.13;78.31
46211;BME280;52144;48.040;-1.594;2023-05-29T00:49:00;101264.09;;;20.18;77.62
46211;BME280;52144;48.040;-1.594;2023-05-29T00:51:29;101269.88;;;20.13;77.40
46211;BME280;52144;48.040;-1.594;2023-05-29T00:53:58;101259.56;;;19.83;80.06
46211;BME280;52144;48.040;-1.594;2023-05-29T00:56:26;101268.03;;;19.78;81.03
46211;BME280;52144;48.040;-1.594;2023-05-29T00:58:54;101265.06;;;19.81;78.88
46211;BME280;52144;48.040;-1.594;2023-05-29T01:01:22;101265.63;;;19.50;80.96
46211;BME280;52144;48.040;-1.594;2023-05-29T01:03:53;101257.31;;;19.53;81.30
46211;BME280;52144;48.040;-1.594;2023-05-29T01:06:23;101261.13;;;19.74;79.15
46211;BME280;52144;48.040;-1.594;2023-05-29T01:08:51;101256.84;;;19.83;79.41
46211;BME280;52144;48.040;-1.594;2023-05-29T01:11:27;101260.03;;;19.64;79.44
46211;BME280;52144;48.040;-1.594;2023-05-29T01:14:03;101255.44;;;19.53;81.18
46211;BME280;52144;48.040;-1.594;2023-05-29T01:16:37;101257.38;;;19.40;80.63
46211;BME280;52144;48.040;-1.594;2023-05-29T01:19:15;101255.56;;;19.28;80.88
46211;BME280;52144;48.040;-1.594;2023-05-29T01:21:56;101254.22;;;19.33;81.18
46211;BME280;52144;48.040;-1.594;2023-05-29T01:24:32;101252.25;;;19.48;80.01
46211;BME280;52144;48.040;-1.594;2023-05-29T01:27:08;101256.44;;;19.52;80.18
46211;BME280;52144;48.040;-1.594;2023-05-29T01:29:39;101251.53;;;19.33;80.52
46211;BME280;52144;48.040;-1.594;2023-05-29T01:32:09;101263.16;;;19.22;81.87
46211;BME280;52144;48.040;-1.594;2023-05-29T01:34:38;101257.63;;;19.24;81.38
46211;BME280;52144;48.040;-1.594;2023-05-29T01:37:06;101269.09;;;19.28;82.42
46211;BME280;52144;48.040;-1.594;2023-05-29T01:39:34;101260.09;;;19.51;80.82
46211;BME280;52144;48.040;-1.594;2023-05-29T01:42:03;101260.09;;;19.51;81.29
46211;BME280;52144;48.040;-1.594;2023-05-29T01:44:33;101259.44;;;19.60;79.88
46211;BME280;52144;48.040;-1.594;2023-05-29T01:47:02;101266.34;;;19.64;80.23
46211;BME280;52144;48.040;-1.594;2023-05-29T01:49:31;101255.09;;;19.58;80.00
46211;BME280;52144;48.040;-1.594;2023-05-29T01:51:59;101258.16;;;19.53;80.03
46211;BME280;52144;48.040;-1.594;2023-05-29T01:54:27;101255.97;;;19.58;78.80
46211;BME280;52144;48.040;-1.594;2023-05-29T01:56:55;101261.72;;;19.30;80.18
46211;BME280;52144;48.040;-1.594;2023-05-29T01:59:22;101252.47;;;19.45;80.43
46211;BME280;52144;48.040;-1.594;2023-05-29T02:01:52;101266.22;;;19.42;80.21
46211;BME280;52144;48.040;-1.594;2023-05-29T02:04:20;101265.75;;;19.48;80.67
46211;BME280;52144;48.040;-1.594;2023-05-29T02:06:48;101260.91;;;19.40;80.38
46211;BME280;52144;48.040;-1.594;2023-05-29T02:09:16;101259.19;;;19.39;79.54
46211;BME280;52144;48.040;-1.594;2023-05-29T02:11:44;101257.38;;;19.40;80.24
46211;BME280;52144;48.040;-1.594;2023-05-29T02:14:12;101253.63;;;19.30;82.01
46211;BME280;52144;48.040;-1.594;2023-05-29T02:16:40;101260.34;;;19.48;79.67
46211;BME280;52144;48.040;-1.594;2023-05-29T02:19:11;101255.69;;;19.50;80.11
46211;BME280;52144;48.040;-1.594;2023-05-29T02:21:39;101266.03;;;19.32;79.07
46211;BME280;52144;48.040;-1.594;2023-05-29T02:24:07;101265.69;;;19.37;81.23
46211;BME280;52144;48.040;-1.594;2023-05-29T02:26:35;101274.25;;;19.31;80.24
46211;BME280;52144;48.040;-1.594;2023-05-29T02:29:04;101270.31;;;19.11;81.15
46211;BME280;52144;48.040;-1.594;2023-05-29T02:31:33;101268.28;;;18.89;82.13
46211;BME280;52144;48.040;-1.594;2023-05-29T02:34:01;101261.38;;;18.84;83.26
46211;BME280;52144;48.040;-1.594;2023-05-29T02:36:30;101264.09;;;18.97;81.23
46211;BME280;52144;48.040;-1.594;2023-05-29T02:38:58;101261.50;;;18.96;81.00
46211;BME280;52144;48.040;-1.594;2023-05-29T02:41:25;101256.44;;;18.91;80.29
46211;BME280;52144;48.040;-1.594;2023-05-29T02:43:53;101252.34;;;18.86;81.25
46211;BME280;52144;48.040;-1.594;2023-05-29T02:46:21;101253.50;;;18.94;80.92
46211;BME280;52144;48.040;-1.594;2023-05-29T02:48:49;101250.19;;;18.65;82.31
46211;BME280;52144;48.040;-1.594;2023-05-29T02:51:17;101244.78;;;18.65;82.26
46211;BME280;52144;48.040;-1.594;2023-05-29T02:53:46;101246.28;;;18.69;81.79
46211;BME280;52144;48.040;-1.594;2023-05-29T02:56:14;101247.69;;;18.62;80.87
46211;BME280;52144;48.040;-1.594;2023-05-29T02:58:43;101242.19;;;18.51;83.65
46211;BME280;52144;48.040;-1.594;2023-05-29T03:01:11;101235.50;;;18.69;81.03
46211;BME280;52144;48.040;-1.594;2023-05-29T03:03:39;101244.03;;;18.63;80.67
46211;BME280;52144;48.040;-1.594;2023-05-29T03:06:07;101235.06;;;18.62;82.56
46211;BME280;52144;48.040;-1.594;2023-05-29T03:08:36;101241.44;;;18.49;82.86
46211;BME280;52144;48.040;-1.594;2023-05-29T03:11:08;101241.88;;;18.55;82.05
46211;BME280;52144;48.040;-1.594;2023-05-29T03:13:37;101241.66;;;18.33;82.42
46211;BME280;52144;48.040;-1.594;2023-05-29T03:16:05;101237.88;;;18.35;82.81
46211;BME280;52144;48.040;-1.594;2023-05-29T03:18:34;101234.31;;;18.22;83.84
46211;BME280;52144;48.040;-1.594;2023-05-29T03:21:02;101238.31;;;18.29;83.07
46211;BME280;52144;48.040;-1.594;2023-05-29T03:23:30;101243.66;;;17.91;84.24
46211;BME280;52144;48.040;-1.594;2023-05-29T03:25:58;101243.22;;;17.97;84.21
46211;BME280;52144;48.040;-1.594;2023-05-29T03:28:27;101248.44;;;18.13;83.95
46211;BME280;52144;48.040;-1.594;2023-05-29T03:30:54;101251.88;;;18.15;83.46
46211;BME280;52144;48.040;-1.594;2023-05-29T03:33:22;101256.00;;;18.08;82.53
46211;BME280;52144;48.040;-1.594;2023-05-29T03:35:50;101244.78;;;17.74;84.52
46211;BME280;52144;48.040;-1.594;2023-05-29T03:38:18;101247.56;;;17.99;84.08
46211;BME280;52144;48.040;-1.594;2023-05-29T03:40:46;101245.34;;;17.79;84.72
46211;BME280;52144;48.040;-1.594;2023-05-29T03:43:14;101251.22;;;17.98;83.34
46211;BME280;52144;48.040;-1.594;2023-05-29T03:45:43;101261.81;;;18.01;83.00
46211;BME280;52144;48.040;-1.594;2023-05-29T03:48:11;101259.13;;;18.14;81.47
46211;BME280;52144;48.040;-1.594;2023-05-29T03:50:38;101271.53;;;17.77;83.86
46211;BME280;52144;48.040;-1.594;2023-05-29T03:53:06;101261.91;;;18.00;82.99
46211;BME280;52144;48.040;-1.594;2023-05-29T03:55:34;101256.28;;;18.03;81.85
46211;BME280;52144;48.040;-1.594;2023-05-29T03:58:02;101271.16;;;17.83;82.30
46211;BME280;52144;48.040;-1.594;2023-05-29T04:00:30;101264.69;;;17.86;82.76
46211;BME280;52144;48.040;-1.594;2023-05-29T04:02:59;101268.19;;;17.73;82.08
46211;BME280;52144;48.040;-1.594;2023-05-29T04:05:27;101274.09;;;17.78;83.03
46211;BME280;52144;48.040;-1.594;2023-05-29T04:07:56;101272.47;;;17.63;83.75
46211;BME280;52144;48.040;-1.594;2023-05-29T04:10:40;101273.56;;;17.73;83.35
46211;BME280;52144;48.040;-1.594;2023-05-29T04:13:08;101272.38;;;17.50;82.96
46211;BME280;52144;48.040;-1.594;2023-05-29T04:15:36;101277.88;;;17.76;81.86
46211;BME280;52144;48.040;-1.594;2023-05-29T04:18:05;101276.19;;;17.60;82.25
46211;BME280;52144;48.040;-1.594;2023-05-29T04:20:33;101272.59;;;17.74;81.32
46211;BME280;52144;48.040;-1.594;2023-05-29T04:23:01;101276.56;;;17.69;81.26
46211;BME280;52144;48.040;-1.594;2023-05-29T04:25:29;101279.56;;;17.37;83.14
46211;BME280;52144;48.040;-1.594;2023-05-29T04:27:58;101280.31;;;17.66;81.47
46211;BME280;52144;48.040;-1.594;2023-05-29T04:30:29;101287.28;;;17.29;82.65
46211;BME280;52144;48.040;-1.594;2023-05-29T04:32:59;101286.63;;;17.52;81.16
46211;BME280;52144;48.040;-1.594;2023-05-29T04:35:28;101292.47;;;17.32;82.22
46211;BME280;52144;48.040;-1.594;2023-05-29T04:37:56;101293.75;;;17.53;81.51
46211;BME280;52144;48.040;-1.594;2023-05-29T04:40:24;101301.78;;;17.68;80.44
46211;BME280;52144;48.040;-1.594;2023-05-29T04:42:52;101297.41;;;17.79;79.74
46211;BME280;52144;48.040;-1.594;2023-05-29T04:45:20;101303.72;;;17.65;80.18
46211;BME280;52144;48.040;-1.594;2023-05-29T04:47:48;101293.13;;;17.62;79.19
46211;BME280;52144;48.040;-1.594;2023-05-29T04:50:16;101302.91;;;17.78;78.90
46211;BME280;52144;48.040;-1.594;2023-05-29T04:52:45;101310.34;;;17.33;80.29
46211;BME280;52144;48.040;-1.594;2023-05-29T04:55:13;101302.25;;;17.47;82.96
46211;BME280;52144;48.040;-1.594;2023-05-29T04:57:42;101309.69;;;17.29;81.34
46211;BME280;52144;48.040;-1.594;2023-05-29T05:00:11;101307.59;;;17.20;82.55
46211;BME280;52144;48.040;-1.594;2023-05-29T05:02:41;101310.19;;;17.21;82.19
46211;BME280;52144;48.040;-1.594;2023-05-29T05:05:10;101310.00;;;17.24;81.87
46211;BME280;52144;48.040;-1.594;2023-05-29T05:07:38;101312.75;;;17.64;79.41
46211;BME280;52144;48.040;-1.594;2023-05-29T05:10:08;101311.00;;;17.51;80.42
46211;BME280;52144;48.040;-1.594;2023-05-29T05:12:36;101314.91;;;17.59;79.73
46211;BME280;52144;48.040;-1.594;2023-05-29T05:15:05;101316.13;;;17.41;81.54
46211;BME280;52144;48.040;-1.594;2023-05-29T05:17:33;101324.09;;;17.42;79.70
46211;BME280;52144;48.040;-1.594;2023-05-29T05:20:01;101328.41;;;17.45;80.81
46211;BME280;52144;48.040;-1.594;2023-05-29T05:22:30;101330.94;;;17.19;81.17
46211;BME280;52144;48.040;-1.594;2023-05-29T05:24:58;101327.28;;;17.35;80.76
46211;BME280;52144;48.040;-1.594;2023-05-29T05:27:28;101334.94;;;17.55;81.12
46211;BME280;52144;48.040;-1.594;2023-05-29T05:29:56;101331.34;;;17.69;79.84
46211;BME280;52144;48.040;-1.594;2023-05-29T05:32:24;101342.03;;;17.56;79.64
46211;BME280;52144;48.040;-1.594;2023-05-29T05:34:52;101342.09;;;17.83;78.11
46211;BME280;52144;48.040;-1.594;2023-05-29T05:37:20;101349.69;;;17.91;78.19
46211;BME280;52144;48.040;-1.594;2023-05-29T05:39:49;101346.72;;;18.21;76.66
46211;BME280;52144;48.040;-1.594;2023-05-29T05:42:17;101344.09;;;17.53;78.80
46211;BME280;52144;48.040;-1.594;2023-05-29T05:44:46;101354.13;;;18.05;77.41
46211;BME280;52144;48.040;-1.594;2023-05-29T05:47:14;101357.56;;;17.94;77.40
46211;BME280;52144;48.040;-1.594;2023-05-29T05:49:42;101360.06;;;17.97;78.17
46211;BME280;52144;48.040;-1.594;2023-05-29T05:52:10;101367.19;;;18.11;77.26
46211;BME280;52144;48.040;-1.594;2023-05-29T05:54:38;101361.69;;;18.13;78.17
46211;BME280;52144;48.040;-1.594;2023-05-29T05:57:05;101353.41;;;17.89;77.92
46211;BME280;52144;48.040;-1.594;2023-05-29T05:59:33;101362.63;;;18.26;77.62
46211;BME280;52144;48.040;-1.594;2023-05-29T06:02:04;101358.31;;;18.49;76.54
46211;BME280;52144;48.040;-1.594;2023-05-29T06:04:34;101371.66;;;18.25;76.42
46211;BME280;52144;48.040;-1.594;2023-05-29T06:07:03;101357.66;;;18.33;76.24
46211;BME280;52144;48.040;-1.594;2023-05-29T06:09:31;101364.31;;;18.27;76.59
46211;BME280;52144;48.040;-1.594;2023-05-29T06:11:58;101367.38;;;18.35;76.30
46211;BME280;52144;48.040;-1.594;2023-05-29T06:14:26;101363.19;;;18.44;76.06
46211;BME280;52144;48.040;-1.594;2023-05-29T06:16:54;101367.66;;;18.18;76.69
46211;BME280;52144;48.040;-1.594;2023-05-29T06:19:24;101369.94;;;18.24;76.49
46211;BME280;52144;48.040;-1.594;2023-05-29T06:21:51;101375.72;;;18.58;74.54
46211;BME280;52144;48.040;-1.594;2023-05-29T06:24:19;101372.16;;;18.70;75.22
46211;BME280;52144;48.040;-1.594;2023-05-29T06:26:47;101377.25;;;19.00;73.91
46211;BME280;52144;48.040;-1.594;2023-05-29T06:29:16;101366.09;;;18.54;74.96
46211;BME280;52144;48.040;-1.594;2023-05-29T06:31:44;101374.31;;;18.78;73.74
46211;BME280;52144;48.040;-1.594;2023-05-29T06:34:12;101376.72;;;18.82;73.17
46211;BME280;52144;48.040;-1.594;2023-05-29T06:36:41;101378.53;;;18.69;73.20
46211;BME280;52144;48.040;-1.594;2023-05-29T06:39:09;101380.59;;;18.78;72.96
46211;BME280;52144;48.040;-1.594;2023-05-29T06:41:37;101379.97;;;19.13;72.91
46211;BME280;52144;48.040;-1.594;2023-05-29T06:44:05;101391.50;;;19.28;71.98
46211;BME280;52144;48.040;-1.594;2023-05-29T06:46:33;101383.22;;;19.06;72.69
46211;BME280;52144;48.040;-1.594;2023-05-29T06:49:01;101388.41;;;18.83;73.33
46211;BME280;52144;48.040;-1.594;2023-05-29T06:51:32;101383.84;;;18.96;74.18
46211;BME280;52144;48.040;-1.594;2023-05-29T06:54:02;101390.53;;;19.42;71.30
46211;BME280;52144;48.040;-1.594;2023-05-29T06:56:30;101387.66;;;18.94;70.96
46211;BME280;52144;48.040;-1.594;2023-05-29T06:58:57;101386.22;;;19.01;71.55
46211;BME280;52144;48.040;-1.594;2023-05-29T07:01:25;101392.97;;;19.71;71.76
46211;BME280;52144;48.040;-1.594;2023-05-29T07:03:53;101392.06;;;19.83;69.92
46211;BME280;52144;48.040;-1.594;2023-05-29T07:06:21;101399.00;;;19.98;69.29
46211;BME280;52144;48.040;-1.594;2023-05-29T07:08:49;101394.69;;;19.96;69.63
46211;BME280;52144;48.040;-1.594;2023-05-29T07:11:18;101397.19;;;19.49;70.06
46211;BME280;52144;48.040;-1.594;2023-05-29T07:13:46;101397.28;;;19.97;67.26
46211;BME280;52144;48.040;-1.594;2023-05-29T07:16:14;101395.22;;;19.77;68.78
46211;BME280;52144;48.040;-1.594;2023-05-29T07:18:50;101395.38;;;19.37;69.11
46211;BME280;52144;48.040;-1.594;2023-05-29T07:21:18;101397.13;;;19.38;69.12
46211;BME280;52144;48.040;-1.594;2023-05-29T07:23:46;101400.47;;;19.29;70.87
46211;BME280;52144;48.040;-1.594;2023-05-29T07:26:14;101398.88;;;19.76;68.33
46211;BME280;52144;48.040;-1.594;2023-05-29T07:28:43;101405.97;;;19.90;66.62
46211;BME280;52144;48.040;-1.594;2023-05-29T07:31:11;101405.53;;;19.46;68.33
46211;BME280;52144;48.040;-1.594;2023-05-29T07:33:39;101414.84;;;19.92;68.32
46211;BME280;52144;48.040;-1.594;2023-05-29T07:36:08;101410.13;;;19.82;67.27
46211;BME280;52144;48.040;-1.594;2023-05-29T07:38:36;101403.00;;;20.06;68.58
46211;BME280;52144;48.040;-1.594;2023-05-29T07:41:04;101402.91;;;20.42;66.39
46211;BME280;52144;48.040;-1.594;2023-05-29T07:43:31;101389.63;;;20.51;66.35
46211;BME280;52144;48.040;-1.594;2023-05-29T07:46:01;101407.22;;;19.73;67.90
46211;BME280;52144;48.040;-1.594;2023-05-29T07:48:29;101409.53;;;19.90;68.94
46211;BME280;52144;48.040;-1.594;2023-05-29T07:50:57;101403.50;;;20.70;66.44
46211;BME280;52144;48.040;-1.594;2023-05-29T07:53:25;101415.22;;;20.82;64.14
46211;BME280;52144;48.040;-1.594;2023-05-29T07:55:53;101405.59;;;20.67;63.22
46211;BME280;52144;48.040;-1.594;2023-05-29T07:58:21;101412.56;;;20.58;63.51
46211;BME280;52144;48.040;-1.594;2023-05-29T08:00:48;101405.25;;;20.47;65.53
46211;BME280;52144;48.040;-1.594;2023-05-29T08:03:18;101405.66;;;20.54;64.14
46211;BME280;52144;48.040;-1.594;2023-05-29T08:05:48;101412.06;;;21.11;63.76
46211;BME280;52144;48.040;-1.594;2023-05-29T08:08:16;101416.06;;;20.71;63.58
46211;BME280;52144;48.040;-1.594;2023-05-29T08:10:44;101421.03;;;19.81;66.24
46211;BME280;52144;48.040;-1.594;2023-05-29T08:13:12;101419.13;;;20.42;65.00
46211;BME280;52144;48.040;-1.594;2023-05-29T08:15:39;101423.63;;;20.07;66.91
46211;BME280;52144;48.040;-1.594;2023-05-29T08:18:07;101421.63;;;20.46;65.20
46211;BME280;52144;48.040;-1.594;2023-05-29T08:20:36;101419.59;;;20.60;64.79
46211;BME280;52144;48.040;-1.594;2023-05-29T08:23:04;101426.28;;;20.43;65.34
46211;BME280;52144;48.040;-1.594;2023-05-29T08:25:32;101413.84;;;20.41;64.94
46211;BME280;52144;48.040;-1.594;2023-05-29T08:28:00;101421.47;;;20.71;65.42
46211;BME280;52144;48.040;-1.594;2023-05-29T08:30:29;101416.88;;;21.18;65.33
46211;BME280;52144;48.040;-1.594;2023-05-29T08:32:57;101410.56;;;20.95;66.00
46211;BME280;52144;48.040;-1.594;2023-05-29T08:35:26;101418.53;;;20.74;65.89
46211;BME280;52144;48.040;-1.594;2023-05-29T08:37:55;101415.88;;;20.97;65.90
46211;BME280;52144;48.040;-1.594;2023-05-29T08:40:23;101414.16;;;21.18;64.34
46211;BME280;52144;48.040;-1.594;2023-05-29T08:42:55;101410.84;;;21.37;64.62
46211;BME280;52144;48.040;-1.594;2023-05-29T08:45:24;101412.91;;;21.22;64.28
46211;BME280;52144;48.040;-1.594;2023-05-29T08:47:53;101420.56;;;21.29;63.70
46211;BME280;52144;48.040;-1.594;2023-05-29T08:50:21;101413.56;;;21.37;64.66
46211;BME280;52144;48.040;-1.594;2023-05-29T08:52:50;101410.97;;;21.47;63.84
46211;BME280;52144;48.040;-1.594;2023-05-29T08:55:20;101417.88;;;21.40;64.03
46211;BME280;52144;48.040;-1.594;2023-05-29T08:57:48;101420.81;;;21.26;64.75
46211;BME280;52144;48.040;-1.594;2023-05-29T09:00:17;101415.13;;;21.29;64.99
46211;BME280;52144;48.040;-1.594;2023-05-29T09:02:44;101423.31;;;21.62;63.40
46211;BME280;52144;48.040;-1.594;2023-05-29T09:05:12;101423.59;;;22.03;62.93
46211;BME280;52144;48.040;-1.594;2023-05-29T09:07:40;101422.59;;;22.04;62.82
46211;BME280;52144;48.040;-1.594;2023-05-29T09:10:10;101423.06;;;22.09;62.79
46211;BME280;52144;48.040;-1.594;2023-05-29T09:12:39;101424.78;;;21.55;64.04
46211;BME280;52144;48.040;-1.594;2023-05-29T09:15:16;101420.47;;;21.53;65.88
46211;BME280;52144;48.040;-1.594;2023-05-29T09:17:49;101424.16;;;22.29;63.18
46211;BME280;52144;48.040;-1.594;2023-05-29T09:20:18;101420.81;;;22.37;64.62
46211;BME280;52144;48.040;-1.594;2023-05-29T09:22:53;101412.25;;;22.83;63.02
46211;BME280;52144;48.040;-1.594;2023-05-29T09:25:22;101414.34;;;22.38;62.63
46211;BME280;52144;48.040;-1.594;2023-05-29T09:27:55;101416.75;;;22.31;63.67
46211;BME280;52144;48.040;-1.594;2023-05-29T09:30:34;101418.50;;;22.10;64.73
46211;BME280;52144;48.040;-1.594;2023-05-29T09:33:04;101407.44;;;23.08;63.39
46211;BME280;52144;48.040;-1.594;2023-05-29T09:35:36;101409.81;;;23.73;62.53
46211;BME280;52144;48.040;-1.594;2023-05-29T09:38:05;101415.63;;;23.99;61.09
46211;BME280;52144;48.040;-1.594;2023-05-29T09:40:36;101413.03;;;23.47;59.96
46211;BME280;52144;48.040;-1.594;2023-05-29T09:43:13;101417.34;;;23.90;60.85
46211;BME280;52144;48.040;-1.594;2023-05-29T09:45:44;101414.66;;;23.59;59.54
46211;BME280;52144;48.040;-1.594;2023-05-29T09:48:14;101415.38;;;24.21;58.16
46211;BME280;52144;48.040;-1.594;2023-05-29T09:50:42;101419.81;;;23.62;60.34
46211;BME280;52144;48.040;-1.594;2023-05-29T09:53:17;101414.09;;;24.06;59.06
46211;BME280;52144;48.040;-1.594;2023-05-29T09:55:46;101408.75;;;23.95;60.08
46211;BME280;52144;48.040;-1.594;2023-05-29T09:58:17;101411.59;;;23.93;60.13
46211;BME280;52144;48.040;-1.594;2023-05-29T10:00:46;101416.78;;;24.16;59.00
46211;BME280;52144;48.040;-1.594;2023-05-29T10:03:15;101404.19;;;24.73;57.80
46211;BME280;52144;48.040;-1.594;2023-05-29T10:05:50;101409.50;;;24.46;55.35
46211;BME280;52144;48.040;-1.594;2023-05-29T10:08:19;101409.03;;;24.01;56.45
46211;BME280;52144;48.040;-1.594;2023-05-29T10:10:51;101408.63;;;24.16;55.45
46211;BME280;52144;48.040;-1.594;2023-05-29T10:13:23;101421.69;;;24.32;57.38
46211;BME280;52144;48.040;-1.594;2023-05-29T10:15:53;101413.75;;;23.99;55.88
46211;BME280;52144;48.040;-1.594;2023-05-29T10:18:24;101412.91;;;23.79;56.67
46211;BME280;52144;48.040;-1.594;2023-05-29T10:20:56;101416.47;;;23.99;57.12
46211;BME280;52144;48.040;-1.594;2023-05-29T10:23:26;101407.38;;;23.70;59.57
46211;BME280;52144;48.040;-1.594;2023-05-29T10:26:03;101411.94;;;23.59;60.07
46211;BME280;52144;48.040;-1.594;2023-05-29T10:28:36;101410.78;;;24.02;59.31
46211;BME280;52144;48.040;-1.594;2023-05-29T10:31:09;101410.66;;;23.63;60.52
46211;BME280;52144;48.040;-1.594;2023-05-29T10:33:50;101414.91;;;23.56;60.80
46211;BME280;52144;48.040;-1.594;2023-05-29T10:36:22;101416.34;;;24.01;60.17
46211;BME280;52144;48.040;-1.594;2023-05-29T10:38:53;101416.94;;;24.05;58.92
46211;BME280;52144;48.040;-1.594;2023-05-29T10:41:32;101410.75;;;23.93;59.73
46211;BME280;52144;48.040;-1.594;2023-05-29T10:44:38;101417.09;;;24.22;59.05
46211;BME280;52144;48.040;-1.594;2023-05-29T10:47:07;101413.50;;;24.41;57.78
46211;BME280;52144;48.040;-1.594;2023-05-29T10:49:39;101419.66;;;24.34;57.83
46211;BME280;52144;48.040;-1.594;2023-05-29T10:52:10;101417.66;;;24.85;57.18
46211;BME280;52144;48.040;-1.594;2023-05-29T10:54:50;101417.38;;;24.88;56.58
46211;BME280;52144;48.040;-1.594;2023-05-29T10:57:21;101419.97;;;24.21;56.36
46211;BME280;52144;48.040;-1.594;2023-05-29T10:59:59;101412.47;;;23.84;58.29
46211;BME280;52144;48.040;-1.594;2023-05-29T11:02:30;101412.19;;;23.97;57.77
46211;BME280;52144;48.040;-1.594;2023-05-29T11:05:05;101421.63;;;23.93;57.22
46211;BME280;52144;48.040;-1.594;2023-05-29T11:07:34;101418.25;;;24.10;57.94
46211;BME280;52144;48.040;-1.594;2023-05-29T11:10:12;101419.22;;;24.48;57.35
46211;BME280;52144;48.040;-1.594;2023-05-29T11:12:56;101421.41;;;24.54;56.22
46211;BME280;52144;48.040;-1.594;2023-05-29T11:15:25;101414.66;;;24.68;56.41
46211;BME280;52144;48.040;-1.594;2023-05-29T11:17:53;101412.03;;;25.43;55.65
46211;BME280;52144;48.040;-1.594;2023-05-29T11:20:36;101415.97;;;25.86;54.27
46211;BME280;52144;48.040;-1.594;2023-05-29T11:23:05;101414.63;;;24.88;55.28
46211;BME280;52144;48.040;-1.594;2023-05-29T11:25:36;101414.97;;;24.55;56.71
46211;BME280;52144;48.040;-1.594;2023-05-29T11:28:04;101412.44;;;25.48;55.61
46211;BME280;52144;48.040;-1.594;2023-05-29T11:30:47;101403.28;;;25.39;56.41
46211;BME280;52144;48.040;-1.594;2023-05-29T11:33:25;101400.63;;;25.20;55.39
46211;BME280;52144;48.040;-1.594;2023-05-29T11:35:56;101408.66;;;25.21;54.95
46211;BME280;52144;48.040;-1.594;2023-05-29T11:38:24;101397.59;;;25.60;54.37
46211;BME280;52144;48.040;-1.594;2023-05-29T11:40:53;101396.63;;;25.79;53.71
46211;BME280;52144;48.040;-1.594;2023-05-29T11:43:21;101399.34;;;25.52;54.51
46211;BME280;52144;48.040;-1.594;2023-05-29T11:45:50;101398.25;;;26.18;54.13
46211;BME280;52144;48.040;-1.594;2023-05-29T11:48:18;101397.00;;;25.85;53.11
46211;BME280;52144;48.040;-1.594;2023-05-29T11:50:46;101390.41;;;25.32;53.63
46211;BME280;52144;48.040;-1.594;2023-05-29T11:53:14;101388.34;;;25.71;54.50
46211;BME280;52144;48.040;-1.594;2023-05-29T11:55:43;101384.09;;;26.40;52.60
46211;BME280;52144;48.040;-1.594;2023-05-29T11:58:11;101384.78;;;26.87;53.28
46211;BME280;52144;48.040;-1.594;2023-05-29T12:00:39;101382.13;;;26.69;53.54
46211;BME280;52144;48.040;-1.594;2023-05-29T12:03:10;101376.47;;;26.70;51.22
46211;BME280;52144;48.040;-1.594;2023-05-29T12:05:46;101378.78;;;26.03;52.45
46211;BME280;52144;48.040;-1.594;2023-05-29T12:08:15;101371.66;;;26.64;53.06
46211;BME280;52144;48.040;-1.594;2023-05-29T12:10:46;101362.41;;;26.83;51.64
46211;BME280;52144;48.040;-1.594;2023-05-29T12:13:15;101372.25;;;27.02;50.66
46211;BME280;52144;48.040;-1.594;2023-05-29T12:15:44;101372.00;;;26.87;49.35
46211;BME280;52144;48.040;-1.594;2023-05-29T12:18:13;101367.97;;;27.26;49.35
46211;BME280;52144;48.040;-1.594;2023-05-29T12:20:41;101365.28;;;27.08;48.52
46211;BME280;52144;48.040;-1.594;2023-05-29T12:23:09;101364.25;;;27.43;49.35
46211;BME280;52144;48.040;-1.594;2023-05-29T12:25:38;101370.56;;;27.01;48.84
46211;BME280;52144;48.040;-1.594;2023-05-29T12:28:06;101375.53;;;27.32;48.66
46211;BME280;52144;48.040;-1.594;2023-05-29T12:30:37;101369.59;;;27.95;48.76
46211;BME280;52144;48.040;-1.594;2023-05-29T12:33:05;101372.66;;;28.09;49.76
46211;BME280;52144;48.040;-1.594;2023-05-29T12:35:35;101368.09;;;28.50;47.98
46211;BME280;52144;48.040;-1.594;2023-05-29T12:38:05;101373.69;;;28.90;48.25
46211;BME280;52144;48.040;-1.594;2023-05-29T12:40:35;101371.91;;;29.22;46.99
46211;BME280;52144;48.040;-1.594;2023-05-29T12:43:05;101362.44;;;28.44;47.52
46211;BME280;52144;48.040;-1.594;2023-05-29T12:45:35;101363.78;;;28.48;47.73
46211;BME280;52144;48.040;-1.594;2023-05-29T12:48:04;101377.53;;;28.56;48.02
46211;BME280;52144;48.040;-1.594;2023-05-29T12:50:34;101362.31;;;29.09;45.50
46211;BME280;52144;48.040;-1.594;2023-05-29T12:53:05;101374.78;;;28.64;46.36